sensor_id;sensor_type;location;lat;lon;timestamp;pressure;altitude;pressure_sealevel;temperature;humidity
78843;BME280;70542;53.774;-0.352;2023-11-18T00:01:35;101850;;;12;42
78843;BME280;70542;53.774;-0.352;2023-11-18T00:07:33;101820;;;12;43
78843;BME280;70542;53.774;-0.352;2023-11-18T00:13:31;101820;;;12;43
78843;BME280;70542;53.774;-0.352;2023-11-18T00:19:17;101810;;;12;42
78843;BME280;70542;53.774;-0.352;2023-11-18T00:25:20;101780;;;12;42
78843;BME280;70542;53.774;-0.352;2023-11-18T00:31:20;101760;;;12;43
78843;BME280;70542;53.774;-0.352;2023-11-18T00:37:15;101750;;;11;44
78843;BME280;70542;53.774;-0.352;2023-11-18T00:43:08;101750;;;12;43
78843;BME280;70542;53.774;-0.352;2023-11-18T00:49:07;101730;;;11;45
78843;BME280;70542;53.774;-0.352;2023-11-18T00:55:01;101730;;;11;46
78843;BME280;70542;53.774;-0.352;2023-11-18T01:00:55;101720;;;12;45
78843;BME280;70542;53.774;-0.352;2023-11-18T01:06:42;101720;;;11;46
78843;BME280;70542;53.774;-0.352;2023-11-18T01:12:33;101710;;;11;44
78843;BME280;70542;53.774;-0.352;2023-11-18T01:18:34;101690;;;11;45
78843;BME280;70542;53.774;-0.352;2023-11-18T01:24:32;101690;;;11;46
78843;BME280;70542;53.774;-0.352;2023-11-18T01:30:33;101680;;;12;44
78843;BME280;70542;53.774;-0.352;2023-11-18T01:36:16;101670;;;11;44
78843;BME280;70542;53.774;-0.352;2023-11-18T01:42:02;101660;;;12;45
78843;BME280;70542;53.774;-0.352;2023-11-18T01:48:02;101640;;;11;44
78843;BME280;70542;53.774;-0.352;2023-11-18T01:54:02;101650;;;11;44
78843;BME280;70542;53.774;-0.352;2023-11-18T01:59:58;101640;;;12;46
78843;BME280;70542;53.774;-0.352;2023-11-18T02:06:08;101650;;;11;46
78843;BME280;70542;53.774;-0.352;2023-11-18T02:12:11;101640;;;12;45
78843;BME280;70542;53.774;-0.352;2023-11-18T02:18:08;101610;;;12;46
78843;BME280;70542;53.774;-0.352;2023-11-18T02:23:59;101600;;;12;45
78843;BME280;70542;53.774;-0.352;2023-11-18T02:29:48;101590;;;12;45
78843;BME280;70542;53.774;-0.352;2023-11-18T02:35:48;101580;;;12;46
78843;BME280;70542;53.774;-0.352;2023-11-18T02:41:43;101590;;;11;46
78843;BME280;70542;53.774;-0.352;2023-11-18T02:47:27;101570;;;11;46
78843;BME280;70542;53.774;-0.352;2023-11-18T02:53:13;101540;;;10;48
78843;BME280;70542;53.774;-0.352;2023-11-18T02:58:56;101520;;;11;48
78843;BME280;70542;53.774;-0.352;2023-11-18T03:04:54;101510;;;12;46
78843;BME280;70542;53.774;-0.352;2023-11-18T03:10:41;101500;;;11;47
78843;BME280;70542;53.774;-0.352;2023-11-18T03:16:27;101480;;;11;49
78843;BME280;70542;53.774;-0.352;2023-11-18T03:22:22;101470;;;11;48
78843;BME280;70542;53.774;-0.352;2023-11-18T03:28:09;101460;;;11;49
78843;BME280;70542;53.774;-0.352;2023-11-18T03:34:07;101440;;;11;49
78843;BME280;70542;53.774;-0.352;2023-11-18T03:40:14;101400;;;10;51
78843;BME280;70542;53.774;-0.352;2023-11-18T03:46:11;101390;;;10;52
78843;BME280;70542;53.774;-0.352;2023-11-18T03:51:50;101380;;;9;55
78843;BME280;70542;53.774;-0.352;2023-11-18T03:57:29;101370;;;9;53
78843;BME280;70542;53.774;-0.352;2023-11-18T04:03:25;101360;;;9;54
78843;BME280;70542;53.774;-0.352;2023-11-18T04:09:26;101330;;;9;57
78843;BME280;70542;53.774;-0.352;2023-11-18T04:15:19;101300;;;9;55
78843;BME280;70542;53.774;-0.352;2023-11-18T04:21:14;101290;;;9;54
78843;BME280;70542;53.774;-0.352;2023-11-18T04:26:54;101250;;;9;55
78843;BME280;70542;53.774;-0.352;2023-11-18T04:32:58;101240;;;9;55
78843;BME280;70542;53.774;-0.352;2023-11-18T04:38:48;101220;;;9;58
78843;BME280;70542;53.774;-0.352;2023-11-18T04:44:49;101220;;;9;57
78843;BME280;70542;53.774;-0.352;2023-11-18T04:51:00;101180;;;9;57
78843;BME280;70542;53.774;-0.352;2023-11-18T04:57:09;101180;;;9;58
78843;BME280;70542;53.774;-0.352;2023-11-18T05:03:00;101140;;;8;59
78843;BME280;70542;53.774;-0.352;2023-11-18T05:08:48;101140;;;8;60
78843;BME280;70542;53.774;-0.352;2023-11-18T05:14:35;101120;;;8;60
78843;BME280;70542;53.774;-0.352;2023-11-18T05:20:21;101100;;;8;60
78843;BME280;70542;53.774;-0.352;2023-11-18T05:26:20;101070;;;8;60
78843;BME280;70542;53.774;-0.352;2023-11-18T05:32:18;101050;;;8;62
78843;BME280;70542;53.774;-0.352;2023-11-18T05:37:56;101040;;;7;62
78843;BME280;70542;53.774;-0.352;2023-11-18T05:43:50;101010;;;8;62
78843;BME280;70542;53.774;-0.352;2023-11-18T05:49:37;100990;;;8;60
78843;BME280;70542;53.774;-0.352;2023-11-18T05:55:38;100980;;;8;60
78843;BME280;70542;53.774;-0.352;2023-11-18T06:01:34;100970;;;9;59
78843;BME280;70542;53.774;-0.352;2023-11-18T06:07:36;100980;;;9;59
78843;BME280;70542;53.774;-0.352;2023-11-18T06:13:34;100970;;;10;56
78843;BME280;70542;53.774;-0.352;2023-11-18T06:19:21;100940;;;9;57
78843;BME280;70542;53.774;-0.352;2023-11-18T06:25:04;100910;;;9;58
78843;BME280;70542;53.774;-0.352;2023-11-18T06:30:50;100880;;;9;59
78843;BME280;70542;53.774;-0.352;2023-11-18T06:36:29;100870;;;9;60
78843;BME280;70542;53.774;-0.352;2023-11-18T06:42:08;100860;;;9;58
78843;BME280;70542;53.774;-0.352;2023-11-18T06:47:46;100850;;;9;59
78843;BME280;70542;53.774;-0.352;2023-11-18T06:53:25;100840;;;9;58
78843;BME280;70542;53.774;-0.352;2023-11-18T06:59:08;100820;;;10;57
78843;BME280;70542;53.774;-0.352;2023-11-18T07:05:00;100810;;;10;56
78843;BME280;70542;53.774;-0.352;2023-11-18T07:10:40;100800;;;11;56
78843;BME280;70542;53.774;-0.352;2023-11-18T07:16:19;100790;;;11;56
78843;BME280;70542;53.774;-0.352;2023-11-18T07:21:57;100780;;;11;54
78843;BME280;70542;53.774;-0.352;2023-11-18T07:27:36;100780;;;10;55
78843;BME280;70542;53.774;-0.352;2023-11-18T07:33:15;100770;;;11;55
78843;BME280;70542;53.774;-0.352;2023-11-18T07:38:54;100750;;;11;56
78843;BME280;70542;53.774;-0.352;2023-11-18T07:44:33;100760;;;11;54
78843;BME280;70542;53.774;-0.352;2023-11-18T07:50:12;100760;;;11;54
78843;BME280;70542;53.774;-0.352;2023-11-18T07:55:51;100750;;;11;54
78843;BME280;70542;53.774;-0.352;2023-11-18T08:01:30;100750;;;12;53
78843;BME280;70542;53.774;-0.352;2023-11-18T08:07:08;100730;;;12;51
78843;BME280;70542;53.774;-0.352;2023-11-18T08:12:47;100720;;;12;51
78843;BME280;70542;53.774;-0.352;2023-11-18T08:18:26;100710;;;12;52
78843;BME280;70542;53.774;-0.352;2023-11-18T08:24:06;100690;;;12;53
78843;BME280;70542;53.774;-0.352;2023-11-18T08:29:50;100700;;;11;54
78843;BME280;70542;53.774;-0.352;2023-11-18T08:35:29;100700;;;12;53
78843;BME280;70542;53.774;-0.352;2023-11-18T08:41:08;100670;;;12;52
78843;BME280;70542;53.774;-0.352;2023-11-18T08:46:52;100670;;;12;54
78843;BME280;70542;53.774;-0.352;2023-11-18T08:52:31;100660;;;12;52
78843;BME280;70542;53.774;-0.352;2023-11-18T08:58:11;100660;;;12;53
78843;BME280;70542;53.774;-0.352;2023-11-18T09:03:50;100640;;;13;50
78843;BME280;70542;53.774;-0.352;2023-11-18T09:09:29;100640;;;12;52
78843;BME280;70542;53.774;-0.352;2023-11-18T09:15:08;100640;;;13;51
78843;BME280;70542;53.774;-0.352;2023-11-18T09:20:47;100640;;;13;51
78843;BME280;70542;53.774;-0.352;2023-11-18T09:26:31;100640;;;13;51
78843;BME280;70542;53.774;-0.352;2023-11-18T09:32:10;100620;;;13;51
78843;BME280;70542;53.774;-0.352;2023-11-18T09:37:48;100600;;;13;51
78843;BME280;70542;53.774;-0.352;2023-11-18T09:43:28;100610;;;12;53
78843;BME280;70542;53.774;-0.352;2023-11-18T09:49:13;100580;;;13;51
78843;BME280;70542;53.774;-0.352;2023-11-18T09:55:01;100590;;;13;52
78843;BME280;70542;53.774;-0.352;2023-11-18T10:00:41;100580;;;14;51
78843;BME280;70542;53.774;-0.352;2023-11-18T10:06:20;100570;;;12;53
78843;BME280;70542;53.774;-0.352;2023-11-18T10:11:59;100550;;;14;51
78843;BME280;70542;53.774;-0.352;2023-11-18T10:17:41;100560;;;13;52
78843;BME280;70542;53.774;-0.352;2023-11-18T10:23:21;100560;;;13;51
78843;BME280;70542;53.774;-0.352;2023-11-18T10:29:03;100560;;;13;52
78843;BME280;70542;53.774;-0.352;2023-11-18T10:34:42;100540;;;14;50
78843;BME280;70542;53.774;-0.352;2023-11-18T10:40:23;100540;;;13;51
78843;BME280;70542;53.774;-0.352;2023-11-18T10:46:06;100510;;;14;52
78843;BME280;70542;53.774;-0.352;2023-11-18T10:51:45;100520;;;14;52
78843;BME280;70542;53.774;-0.352;2023-11-18T10:57:24;100510;;;14;53
78843;BME280;70542;53.774;-0.352;2023-11-18T11:03:03;100500;;;14;51
78843;BME280;70542;53.774;-0.352;2023-11-18T11:08:42;100460;;;14;53
78843;BME280;70542;53.774;-0.352;2023-11-18T11:14:22;100470;;;15;51
78843;BME280;70542;53.774;-0.352;2023-11-18T11:20:04;100490;;;14;51
78843;BME280;70542;53.774;-0.352;2023-11-18T11:25:58;100480;;;14;52
78843;BME280;70542;53.774;-0.352;2023-11-18T11:31:38;100490;;;15;50
78843;BME280;70542;53.774;-0.352;2023-11-18T11:37:17;100480;;;15;52
78843;BME280;70542;53.774;-0.352;2023-11-18T11:42:58;100470;;;14;53
78843;BME280;70542;53.774;-0.352;2023-11-18T11:48:38;100450;;;15;52
78843;BME280;70542;53.774;-0.352;2023-11-18T11:54:22;100460;;;15;52
78843;BME280;70542;53.774;-0.352;2023-11-18T12:00:05;100450;;;15;51
78843;BME280;70542;53.774;-0.352;2023-11-18T12:05:47;100440;;;16;50
78843;BME280;70542;53.774;-0.352;2023-11-18T12:11:32;100440;;;16;49
78843;BME280;70542;53.774;-0.352;2023-11-18T12:17:11;100430;;;16;49
78843;BME280;70542;53.774;-0.352;2023-11-18T12:23:04;100430;;;16;48
78843;BME280;70542;53.774;-0.352;2023-11-18T12:28:42;100410;;;17;48
78843;BME280;70542;53.774;-0.352;2023-11-18T12:34:21;100390;;;17;48
78843;BME280;70542;53.774;-0.352;2023-11-18T12:51:56;100370;;;17;47
78843;BME280;70542;53.774;-0.352;2023-11-18T12:57:34;100370;;;16;48
78843;BME280;70542;53.774;-0.352;2023-11-18T13:03:17;100380;;;17;48
78843;BME280;70542;53.774;-0.352;2023-11-18T13:08:56;100390;;;17;48
78843;BME280;70542;53.774;-0.352;2023-11-18T13:14:36;100370;;;17;49
78843;BME280;70542;53.774;-0.352;2023-11-18T13:20:15;100380;;;16;51
78843;BME280;70542;53.774;-0.352;2023-11-18T13:25:55;100380;;;16;50
78843;BME280;70542;53.774;-0.352;2023-11-18T13:31:34;100380;;;17;50
78843;BME280;70542;53.774;-0.352;2023-11-18T13:37:13;100360;;;18;48
78843;BME280;70542;53.774;-0.352;2023-11-18T13:43:02;100350;;;18;46
78843;BME280;70542;53.774;-0.352;2023-11-18T13:48:41;100340;;;18;47
78843;BME280;70542;53.774;-0.352;2023-11-18T13:54:20;100350;;;18;47
78843;BME280;70542;53.774;-0.352;2023-11-18T14:00:00;100340;;;18;46
78843;BME280;70542;53.774;-0.352;2023-11-18T14:05:40;100330;;;18;46
78843;BME280;70542;53.774;-0.352;2023-11-18T14:11:19;100310;;;18;46
78843;BME280;70542;53.774;-0.352;2023-11-18T14:16:58;100310;;;18;46
78843;BME280;70542;53.774;-0.352;2023-11-18T14:22:40;100320;;;18;47
78843;BME280;70542;53.774;-0.352;2023-11-18T14:28:19;100320;;;17;49
78843;BME280;70542;53.774;-0.352;2023-11-18T14:33:59;100320;;;18;47
78843;BME280;70542;53.774;-0.352;2023-11-18T14:39:38;100320;;;18;47
78843;BME280;70542;53.774;-0.352;2023-11-18T14:45:17;100310;;;18;47
78843;BME280;70542;53.774;-0.352;2023-11-18T14:50:55;100290;;;17;47
78843;BME280;70542;53.774;-0.352;2023-11-18T14:56:34;100280;;;17;48
78843;BME280;70542;53.774;-0.352;2023-11-18T15:02:13;100290;;;17;48
78843;BME280;70542;53.774;-0.352;2023-11-18T15:07:53;100280;;;17;49
78843;BME280;70542;53.774;-0.352;2023-11-18T15:13:32;100280;;;17;49
78843;BME280;70542;53.774;-0.352;2023-11-18T15:19:11;100290;;;17;47
78843;BME280;70542;53.774;-0.352;2023-11-18T15:24:54;100280;;;17;47
78843;BME280;70542;53.774;-0.352;2023-11-18T15:30:33;100280;;;17;47
78843;BME280;70542;53.774;-0.352;2023-11-18T15:36:12;100280;;;17;48
78843;BME280;70542;53.774;-0.352;2023-11-18T15:41:56;100280;;;16;49
78843;BME280;70542;53.774;-0.352;2023-11-18T15:47:36;100270;;;17;46
78843;BME280;70542;53.774;-0.352;2023-11-18T15:53:15;100260;;;17;48
78843;BME280;70542;53.774;-0.352;2023-11-18T15:58:53;100250;;;17;49
78843;BME280;70542;53.774;-0.352;2023-11-18T16:04:32;100250;;;16;49
78843;BME280;70542;53.774;-0.352;2023-11-18T16:10:11;100240;;;16;49
78843;BME280;70542;53.774;-0.352;2023-11-18T16:15:50;100240;;;16;49
78843;BME280;70542;53.774;-0.352;2023-11-18T16:21:29;100250;;;16;49
78843;BME280;70542;53.774;-0.352;2023-11-18T16:27:08;100260;;;17;48
78843;BME280;70542;53.774;-0.352;2023-11-18T16:32:46;100240;;;17;47
78843;BME280;70542;53.774;-0.352;2023-11-18T16:38:25;100220;;;16;49
78843;BME280;70542;53.774;-0.352;2023-11-18T16:44:04;100210;;;16;50
78843;BME280;70542;53.774;-0.352;2023-11-18T16:49:43;100220;;;16;50
78843;BME280;70542;53.774;-0.352;2023-11-18T16:55:22;100230;;;17;48
78843;BME280;70542;53.774;-0.352;2023-11-18T17:01:01;100210;;;17;48
78843;BME280;70542;53.774;-0.352;2023-11-18T17:06:40;100210;;;16;48
78843;BME280;70542;53.774;-0.352;2023-11-18T17:12:19;100220;;;15;51
78843;BME280;70542;53.774;-0.352;2023-11-18T17:18:02;100220;;;16;50
78843;BME280;70542;53.774;-0.352;2023-11-18T17:23:48;100220;;;16;50
78843;BME280;70542;53.774;-0.352;2023-11-18T17:29:27;100220;;;16;50
78843;BME280;70542;53.774;-0.352;2023-11-18T17:35:07;100210;;;16;49
78843;BME280;70542;53.774;-0.352;2023-11-18T17:40:47;100220;;;15;50
78843;BME280;70542;53.774;-0.352;2023-11-18T17:46:25;100230;;;16;49
78843;BME280;70542;53.774;-0.352;2023-11-18T17:52:05;100230;;;16;48
78843;BME280;70542;53.774;-0.352;2023-11-18T17:57:44;100230;;;16;48
78843;BME280;70542;53.774;-0.352;2023-11-18T18:03:22;100230;;;16;47
78843;BME280;70542;53.774;-0.352;2023-11-18T18:09:01;100230;;;16;47
78843;BME280;70542;53.774;-0.352;2023-11-18T18:14:40;100240;;;16;46
78843;BME280;70542;53.774;-0.352;2023-11-18T18:20:18;100240;;;17;45
78843;BME280;70542;53.774;-0.352;2023-11-18T18:25:57;100250;;;16;45
78843;BME280;70542;53.774;-0.352;2023-11-18T18:31:41;100240;;;16;45
78843;BME280;70542;53.774;-0.352;2023-11-18T18:37:20;100240;;;16;45
78843;BME280;70542;53.774;-0.352;2023-11-18T18:48:52;100250;;;17;44
78843;BME280;70542;53.774;-0.352;2023-11-18T18:54:31;100250;;;17;43
78843;BME280;70542;53.774;-0.352;2023-11-18T19:00:11;100250;;;16;45
78843;BME280;70542;53.774;-0.352;2023-11-18T19:05:50;100240;;;16;45
78843;BME280;70542;53.774;-0.352;2023-11-18T19:11:28;100240;;;16;45
78843;BME280;70542;53.774;-0.352;2023-11-18T19:17:07;100240;;;16;44
78843;BME280;70542;53.774;-0.352;2023-11-18T19:22:46;100240;;;16;44
78843;BME280;70542;53.774;-0.352;2023-11-18T19:28:25;100240;;;16;45
78843;BME280;70542;53.774;-0.352;2023-11-18T19:34:03;100240;;;16;44
78843;BME280;70542;53.774;-0.352;2023-11-18T19:39:42;100230;;;16;44
78843;BME280;70542;53.774;-0.352;2023-11-18T19:45:21;100220;;;16;44
78843;BME280;70542;53.774;-0.352;2023-11-18T19:51:05;100230;;;17;43
78843;BME280;70542;53.774;-0.352;2023-11-18T19:56:43;100230;;;17;43
78843;BME280;70542;53.774;-0.352;2023-11-18T20:02:27;100220;;;17;43
78843;BME280;70542;53.774;-0.352;2023-11-18T20:08:06;100220;;;17;42
78843;BME280;70542;53.774;-0.352;2023-11-18T20:13:45;100210;;;16;44
78843;BME280;70542;53.774;-0.352;2023-11-18T20:19:25;100210;;;16;44
78843;BME280;70542;53.774;-0.352;2023-11-18T20:25:04;100210;;;16;45
78843;BME280;70542;53.774;-0.352;2023-11-18T20:30:43;100210;;;16;46
78843;BME280;70542;53.774;-0.352;2023-11-18T20:36:22;100220;;;16;47
78843;BME280;70542;53.774;-0.352;2023-11-18T20:42:06;100210;;;16;45
78843;BME280;70542;53.774;-0.352;2023-11-18T20:47:46;100210;;;16;45
78843;BME280;70542;53.774;-0.352;2023-11-18T20:53:25;100210;;;16;44
78843;BME280;70542;53.774;-0.352;2023-11-18T20:59:04;100200;;;16;44
78843;BME280;70542;53.774;-0.352;2023-11-18T21:04:42;100210;;;15;46
78843;BME280;70542;53.774;-0.352;2023-11-18T21:10:22;100210;;;16;43
78843;BME280;70542;53.774;-0.352;2023-11-18T21:16:07;100210;;;16;45
78843;BME280;70542;53.774;-0.352;2023-11-18T21:21:51;100210;;;16;44
78843;BME280;70542;53.774;-0.352;2023-11-18T21:27:34;100200;;;16;45
78843;BME280;70542;53.774;-0.352;2023-11-18T21:33:13;100200;;;16;44
78843;BME280;70542;53.774;-0.352;2023-11-18T21:38:52;100190;;;16;44
78843;BME280;70542;53.774;-0.352;2023-11-18T21:44:35;100180;;;15;45
78843;BME280;70542;53.774;-0.352;2023-11-18T21:50:19;100180;;;16;45
78843;BME280;70542;53.774;-0.352;2023-11-18T21:55:59;100180;;;15;45
78843;BME280;70542;53.774;-0.352;2023-11-18T22:01:44;100170;;;16;44
78843;BME280;70542;53.774;-0.352;2023-11-18T22:07:22;100180;;;16;44
78843;BME280;70542;53.774;-0.352;2023-11-18T22:13:12;100180;;;15;44
78843;BME280;70542;53.774;-0.352;2023-11-18T22:18:51;100180;;;16;44
78843;BME280;70542;53.774;-0.352;2023-11-18T22:24:29;100180;;;15;45
78843;BME280;70542;53.774;-0.352;2023-11-18T22:30:09;100180;;;15;44
78843;BME280;70542;53.774;-0.352;2023-11-18T22:35:49;100170;;;15;45
78843;BME280;70542;53.774;-0.352;2023-11-18T22:41:32;100180;;;15;45
78843;BME280;70542;53.774;-0.352;2023-11-18T22:47:12;100180;;;15;44
78843;BME280;70542;53.774;-0.352;2023-11-18T22:52:50;100170;;;16;43
78843;BME280;70542;53.774;-0.352;2023-11-18T22:58:34;100160;;;15;44
78843;BME280;70542;53.774;-0.352;2023-11-18T23:04:18;100150;;;15;45
78843;BME280;70542;53.774;-0.352;2023-11-18T23:09:57;100140;;;15;45
78843;BME280;70542;53.774;-0.352;2023-11-18T23:15:37;100140;;;14;46
78843;BME280;70542;53.774;-0.352;2023-11-18T23:21:15;100130;;;14;46
78843;BME280;70542;53.774;-0.352;2023-11-18T23:26:55;100120;;;14;46
78843;BME280;70542;53.774;-0.352;2023-11-18T23:32:33;100130;;;15;44
78843;BME280;70542;53.774;-0.352;2023-11-18T23:38:12;100120;;;14;45
78843;BME280;70542;53.774;-0.352;2023-11-18T23:43:51;100110;;;14;45
78843;BME280;70542;53.774;-0.352;2023-11-18T23:49:30;100130;;;14;45
78843;BME280;70542;53.774;-0.352;2023-11-18T23:55:13;100120;;;15;45
